sensor_id;sensor_type;location;lat;lon;timestamp;P1;durP1;ratioP1;P2;durP2;ratioP2
7338;SDS011;33747;49.524;8.390;2023-04-24T00:00:15;2.03;;;1.00;;
7338;SDS011;33747;49.524;8.390;2023-04-24T00:02:41;2.22;;;1.20;;
7338;SDS011;33747;49.524;8.390;2023-04-24T00:05:11;1.08;;;1.00;;
7338;SDS011;33747;49.524;8.390;2023-04-24T00:07:36;1.92;;;1.10;;
7338;SDS011;33747;49.524;8.390;2023-04-24T00:10:02;1.73;;;1.20;;
7338;SDS011;33747;49.524;8.390;2023-04-24T00:12:27;2.78;;;1.20;;
7338;SDS011;33747;49.524;8.390;2023-04-24T00:14:53;1.60;;;1.10;;
7338;SDS011;33747;49.524;8.390;2023-04-24T00:17:18;1.52;;;1.00;;
7338;SDS011;33747;49.524;8.390;2023-04-24T00:19:45;2.85;;;1.08;;
7338;SDS011;33747;49.524;8.390;2023-04-24T00:22:11;0.98;;;0.95;;
7338;SDS011;33747;49.524;8.390;2023-04-24T00:24:38;1.55;;;1.20;;
7338;SDS011;33747;49.524;8.390;2023-04-24T00:27:04;1.33;;;1.23;;
7338;SDS011;33747;49.524;8.390;2023-04-24T00:29:29;1.50;;;1.10;;
7338;SDS011;33747;49.524;8.390;2023-04-24T00:31:54;4.32;;;1.17;;
7338;SDS011;33747;49.524;8.390;2023-04-24T00:34:20;2.30;;;1.10;;
7338;SDS011;33747;49.524;8.390;2023-04-24T00:36:45;3.55;;;0.93;;
7338;SDS011;33747;49.524;8.390;2023-04-24T00:39:11;1.23;;;1.08;;
7338;SDS011;33747;49.524;8.390;2023-04-24T00:41:36;1.73;;;1.20;;
7338;SDS011;33747;49.524;8.390;2023-04-24T00:44:01;4.07;;;1.10;;
7338;SDS011;33747;49.524;8.390;2023-04-24T00:46:27;3.67;;;1.17;;
7338;SDS011;33747;49.524;8.390;2023-04-24T00:48:52;1.33;;;1.00;;
7338;SDS011;33747;49.524;8.390;2023-04-24T00:51:18;2.15;;;1.10;;
7338;SDS011;33747;49.524;8.390;2023-04-24T00:53:43;1.20;;;1.00;;
7338;SDS011;33747;49.524;8.390;2023-04-24T00:56:09;1.17;;;0.98;;
7338;SDS011;33747;49.524;8.390;2023-04-24T00:58:34;1.80;;;1.10;;
7338;SDS011;33747;49.524;8.390;2023-04-24T01:01:00;3.38;;;1.10;;
7338;SDS011;33747;49.524;8.390;2023-04-24T01:03:28;2.40;;;1.10;;
7338;SDS011;33747;49.524;8.390;2023-04-24T01:05:56;3.35;;;0.98;;
7338;SDS011;33747;49.524;8.390;2023-04-24T01:08:25;1.35;;;1.00;;
7338;SDS011;33747;49.524;8.390;2023-04-24T01:10:51;1.13;;;0.82;;
7338;SDS011;33747;49.524;8.390;2023-04-24T01:13:17;2.13;;;1.23;;
7338;SDS011;33747;49.524;8.390;2023-04-24T01:15:46;3.05;;;1.20;;
7338;SDS011;33747;49.524;8.390;2023-04-24T01:18:12;2.25;;;1.05;;
7338;SDS011;33747;49.524;8.390;2023-04-24T01:20:41;1.85;;;1.10;;
7338;SDS011;33747;49.524;8.390;2023-04-24T01:23:09;2.42;;;0.95;;
7338;SDS011;33747;49.524;8.390;2023-04-24T01:25:35;2.22;;;1.40;;
7338;SDS011;33747;49.524;8.390;2023-04-24T01:28:01;3.83;;;1.38;;
7338;SDS011;33747;49.524;8.390;2023-04-24T01:30:26;3.25;;;0.98;;
7338;SDS011;33747;49.524;8.390;2023-04-24T01:32:52;2.83;;;1.42;;
7338;SDS011;33747;49.524;8.390;2023-04-24T01:35:18;2.05;;;1.33;;
7338;SDS011;33747;49.524;8.390;2023-04-24T01:37:44;1.73;;;1.20;;
7338;SDS011;33747;49.524;8.390;2023-04-24T01:40:09;3.55;;;1.40;;
7338;SDS011;33747;49.524;8.390;2023-04-24T01:42:35;3.15;;;1.42;;
7338;SDS011;33747;49.524;8.390;2023-04-24T01:45:01;2.58;;;1.80;;
7338;SDS011;33747;49.524;8.390;2023-04-24T01:47:28;4.10;;;1.50;;
7338;SDS011;33747;49.524;8.390;2023-04-24T01:49:54;4.93;;;1.73;;
7338;SDS011;33747;49.524;8.390;2023-04-24T01:52:20;1.77;;;1.10;;
7338;SDS011;33747;49.524;8.390;2023-04-24T01:54:45;8.45;;;1.20;;
7338;SDS011;33747;49.524;8.390;2023-04-24T01:57:10;1.40;;;1.30;;
7338;SDS011;33747;49.524;8.390;2023-04-24T01:59:36;5.55;;;1.65;;
7338;SDS011;33747;49.524;8.390;2023-04-24T02:02:02;3.13;;;1.50;;
7338;SDS011;33747;49.524;8.390;2023-04-24T02:04:27;1.90;;;1.15;;
7338;SDS011;33747;49.524;8.390;2023-04-24T02:06:53;2.13;;;1.13;;
7338;SDS011;33747;49.524;8.390;2023-04-24T02:09:18;5.13;;;1.38;;
7338;SDS011;33747;49.524;8.390;2023-04-24T02:11:44;1.75;;;1.30;;
7338;SDS011;33747;49.524;8.390;2023-04-24T02:14:09;4.07;;;1.33;;
7338;SDS011;33747;49.524;8.390;2023-04-24T02:16:35;5.90;;;1.40;;
7338;SDS011;33747;49.524;8.390;2023-04-24T02:19:01;2.70;;;1.13;;
7338;SDS011;33747;49.524;8.390;2023-04-24T02:21:26;1.90;;;1.50;;
7338;SDS011;33747;49.524;8.390;2023-04-24T02:23:52;2.33;;;1.00;;
7338;SDS011;33747;49.524;8.390;2023-04-24T02:26:18;3.10;;;1.40;;
7338;SDS011;33747;49.524;8.390;2023-04-24T02:28:43;4.75;;;1.58;;
7338;SDS011;33747;49.524;8.390;2023-04-24T02:31:09;7.18;;;1.90;;
7338;SDS011;33747;49.524;8.390;2023-04-24T02:33:34;10.05;;;2.65;;
7338;SDS011;33747;49.524;8.390;2023-04-24T02:36:00;6.38;;;1.95;;
7338;SDS011;33747;49.524;8.390;2023-04-24T02:38:26;8.55;;;1.90;;
7338;SDS011;33747;49.524;8.390;2023-04-24T02:40:51;5.68;;;1.38;;
7338;SDS011;33747;49.524;8.390;2023-04-24T02:43:17;5.90;;;1.50;;
7338;SDS011;33747;49.524;8.390;2023-04-24T02:45:42;3.85;;;1.20;;
7338;SDS011;33747;49.524;8.390;2023-04-24T02:48:07;4.82;;;1.13;;
7338;SDS011;33747;49.524;8.390;2023-04-24T02:50:33;2.55;;;1.30;;
7338;SDS011;33747;49.524;8.390;2023-04-24T02:52:58;4.38;;;1.20;;
7338;SDS011;33747;49.524;8.390;2023-04-24T02:55:24;1.60;;;0.90;;
7338;SDS011;33747;49.524;8.390;2023-04-24T02:57:50;3.80;;;1.00;;
7338;SDS011;33747;49.524;8.390;2023-04-24T03:00:15;0.95;;;0.90;;
7338;SDS011;33747;49.524;8.390;2023-04-24T03:02:40;1.40;;;0.88;;
7338;SDS011;33747;49.524;8.390;2023-04-24T03:05:07;2.45;;;1.10;;
7338;SDS011;33747;49.524;8.390;2023-04-24T03:07:32;1.38;;;1.10;;
7338;SDS011;33747;49.524;8.390;2023-04-24T03:09:58;1.42;;;1.20;;
7338;SDS011;33747;49.524;8.390;2023-04-24T03:12:24;1.50;;;1.13;;
7338;SDS011;33747;49.524;8.390;2023-04-24T03:14:49;1.95;;;1.10;;
7338;SDS011;33747;49.524;8.390;2023-04-24T03:17:15;5.65;;;1.23;;
7338;SDS011;33747;49.524;8.390;2023-04-24T03:19:40;5.57;;;1.30;;
7338;SDS011;33747;49.524;8.390;2023-04-24T03:22:05;1.83;;;1.33;;
7338;SDS011;33747;49.524;8.390;2023-04-24T03:24:31;2.05;;;1.10;;
7338;SDS011;33747;49.524;8.390;2023-04-24T03:26:56;1.83;;;1.00;;
7338;SDS011;33747;49.524;8.390;2023-04-24T03:29:22;1.50;;;1.00;;
7338;SDS011;33747;49.524;8.390;2023-04-24T03:31:47;4.60;;;1.40;;
7338;SDS011;33747;49.524;8.390;2023-04-24T03:34:12;0.90;;;0.90;;
7338;SDS011;33747;49.524;8.390;2023-04-24T03:36:38;1.60;;;1.50;;
7338;SDS011;33747;49.524;8.390;2023-04-24T03:39:03;1.95;;;1.30;;
7338;SDS011;33747;49.524;8.390;2023-04-24T03:41:29;2.10;;;1.52;;
7338;SDS011;33747;49.524;8.390;2023-04-24T03:43:55;1.83;;;1.30;;
7338;SDS011;33747;49.524;8.390;2023-04-24T03:46:20;3.05;;;1.65;;
7338;SDS011;33747;49.524;8.390;2023-04-24T03:48:46;2.50;;;1.70;;
7338;SDS011;33747;49.524;8.390;2023-04-24T03:51:11;4.45;;;1.52;;
7338;SDS011;33747;49.524;8.390;2023-04-24T03:53:36;1.95;;;1.40;;
7338;SDS011;33747;49.524;8.390;2023-04-24T03:56:02;2.33;;;1.40;;
7338;SDS011;33747;49.524;8.390;2023-04-24T03:58:27;2.78;;;1.30;;
7338;SDS011;33747;49.524;8.390;2023-04-24T04:00:53;2.42;;;1.40;;
7338;SDS011;33747;49.524;8.390;2023-04-24T04:03:18;1.67;;;1.50;;
7338;SDS011;33747;49.524;8.390;2023-04-24T04:05:43;1.55;;;1.33;;
7338;SDS011;33747;49.524;8.390;2023-04-24T04:08:09;1.63;;;1.52;;
7338;SDS011;33747;49.524;8.390;2023-04-24T04:10:34;4.95;;;1.73;;
7338;SDS011;33747;49.524;8.390;2023-04-24T04:13:00;1.77;;;1.67;;
7338;SDS011;33747;49.524;8.390;2023-04-24T04:15:25;6.72;;;1.77;;
7338;SDS011;33747;49.524;8.390;2023-04-24T04:17:50;2.42;;;2.00;;
7338;SDS011;33747;49.524;8.390;2023-04-24T04:20:16;2.28;;;1.50;;
7338;SDS011;33747;49.524;8.390;2023-04-24T04:22:41;2.10;;;1.98;;
7338;SDS011;33747;49.524;8.390;2023-04-24T04:25:08;1.98;;;1.77;;
7338;SDS011;33747;49.524;8.390;2023-04-24T04:27:33;2.35;;;1.65;;
7338;SDS011;33747;49.524;8.390;2023-04-24T04:29:59;2.28;;;1.92;;
7338;SDS011;33747;49.524;8.390;2023-04-24T04:32:30;2.20;;;1.80;;
7338;SDS011;33747;49.524;8.390;2023-04-24T04:34:58;3.03;;;2.00;;
7338;SDS011;33747;49.524;8.390;2023-04-24T04:37:23;2.85;;;2.15;;
7338;SDS011;33747;49.524;8.390;2023-04-24T04:39:48;2.85;;;2.65;;
7338;SDS011;33747;49.524;8.390;2023-04-24T04:42:14;2.75;;;2.55;;
7338;SDS011;33747;49.524;8.390;2023-04-24T04:44:40;4.75;;;2.67;;
7338;SDS011;33747;49.524;8.390;2023-04-24T04:47:05;2.33;;;2.22;;
7338;SDS011;33747;49.524;8.390;2023-04-24T04:49:32;2.83;;;2.15;;
7338;SDS011;33747;49.524;8.390;2023-04-24T04:51:57;4.53;;;2.38;;
7338;SDS011;33747;49.524;8.390;2023-04-24T04:54:22;3.42;;;2.83;;
7338;SDS011;33747;49.524;8.390;2023-04-24T04:56:51;2.47;;;2.22;;
7338;SDS011;33747;49.524;8.390;2023-04-24T04:59:16;3.08;;;2.80;;
7338;SDS011;33747;49.524;8.390;2023-04-24T05:01:42;4.88;;;2.65;;
7338;SDS011;33747;49.524;8.390;2023-04-24T05:04:07;3.95;;;2.80;;
7338;SDS011;33747;49.524;8.390;2023-04-24T05:06:33;7.15;;;2.60;;
7338;SDS011;33747;49.524;8.390;2023-04-24T05:08:58;3.03;;;2.40;;
7338;SDS011;33747;49.524;8.390;2023-04-24T05:11:23;4.00;;;2.97;;
7338;SDS011;33747;49.524;8.390;2023-04-24T05:13:49;4.25;;;2.90;;
7338;SDS011;33747;49.524;8.390;2023-04-24T05:16:14;4.22;;;2.80;;
7338;SDS011;33747;49.524;8.390;2023-04-24T05:18:40;5.00;;;2.42;;
7338;SDS011;33747;49.524;8.390;2023-04-24T05:21:05;7.32;;;3.28;;
7338;SDS011;33747;49.524;8.390;2023-04-24T05:23:30;3.97;;;3.00;;
7338;SDS011;33747;49.524;8.390;2023-04-24T05:25:56;3.15;;;2.78;;
7338;SDS011;33747;49.524;8.390;2023-04-24T05:28:22;7.28;;;2.90;;
7338;SDS011;33747;49.524;8.390;2023-04-24T05:30:47;3.00;;;2.80;;
7338;SDS011;33747;49.524;8.390;2023-04-24T05:33:13;4.68;;;3.22;;
7338;SDS011;33747;49.524;8.390;2023-04-24T05:35:39;3.67;;;3.17;;
7338;SDS011;33747;49.524;8.390;2023-04-24T05:38:10;4.68;;;3.40;;
7338;SDS011;33747;49.524;8.390;2023-04-24T05:40:36;3.83;;;3.10;;
7338;SDS011;33747;49.524;8.390;2023-04-24T05:43:01;7.95;;;2.95;;
7338;SDS011;33747;49.524;8.390;2023-04-24T05:45:26;5.90;;;3.13;;
7338;SDS011;33747;49.524;8.390;2023-04-24T05:47:52;5.70;;;3.13;;
7338;SDS011;33747;49.524;8.390;2023-04-24T05:50:17;6.10;;;3.17;;
7338;SDS011;33747;49.524;8.390;2023-04-24T05:52:43;6.05;;;2.80;;
7338;SDS011;33747;49.524;8.390;2023-04-24T05:55:08;4.32;;;2.70;;
7338;SDS011;33747;49.524;8.390;2023-04-24T05:57:33;5.25;;;2.55;;
7338;SDS011;33747;49.524;8.390;2023-04-24T05:59:59;5.47;;;2.55;;
7338;SDS011;33747;49.524;8.390;2023-04-24T06:02:24;4.32;;;2.80;;
7338;SDS011;33747;49.524;8.390;2023-04-24T06:04:50;5.72;;;3.00;;
7338;SDS011;33747;49.524;8.390;2023-04-24T06:07:15;4.63;;;3.50;;
7338;SDS011;33747;49.524;8.390;2023-04-24T06:09:40;3.25;;;2.92;;
7338;SDS011;33747;49.524;8.390;2023-04-24T06:12:06;3.22;;;2.78;;
7338;SDS011;33747;49.524;8.390;2023-04-24T06:14:33;5.78;;;2.95;;
7338;SDS011;33747;49.524;8.390;2023-04-24T06:16:58;3.65;;;2.78;;
7338;SDS011;33747;49.524;8.390;2023-04-24T06:19:24;3.83;;;2.83;;
7338;SDS011;33747;49.524;8.390;2023-04-24T06:21:49;4.45;;;2.60;;
7338;SDS011;33747;49.524;8.390;2023-04-24T06:24:15;4.97;;;2.70;;
7338;SDS011;33747;49.524;8.390;2023-04-24T06:26:41;4.65;;;3.25;;
7338;SDS011;33747;49.524;8.390;2023-04-24T06:29:06;4.93;;;2.70;;
7338;SDS011;33747;49.524;8.390;2023-04-24T06:31:32;3.67;;;2.88;;
7338;SDS011;33747;49.524;8.390;2023-04-24T06:34:01;7.55;;;3.15;;
7338;SDS011;33747;49.524;8.390;2023-04-24T06:36:27;4.88;;;2.90;;
7338;SDS011;33747;49.524;8.390;2023-04-24T06:38:53;3.00;;;2.25;;
7338;SDS011;33747;49.524;8.390;2023-04-24T06:41:18;3.80;;;2.47;;
7338;SDS011;33747;49.524;8.390;2023-04-24T06:43:44;3.83;;;2.25;;
7338;SDS011;33747;49.524;8.390;2023-04-24T06:46:09;2.40;;;2.20;;
7338;SDS011;33747;49.524;8.390;2023-04-24T06:48:35;2.53;;;1.92;;
7338;SDS011;33747;49.524;8.390;2023-04-24T06:51:00;5.47;;;2.08;;
7338;SDS011;33747;49.524;8.390;2023-04-24T06:53:26;2.90;;;2.45;;
7338;SDS011;33747;49.524;8.390;2023-04-24T06:55:52;2.70;;;1.90;;
7338;SDS011;33747;49.524;8.390;2023-04-24T06:58:17;2.95;;;2.00;;
7338;SDS011;33747;49.524;8.390;2023-04-24T07:00:43;4.05;;;1.90;;
7338;SDS011;33747;49.524;8.390;2023-04-24T07:03:08;3.45;;;1.92;;
7338;SDS011;33747;49.524;8.390;2023-04-24T07:05:33;5.40;;;1.80;;
7338;SDS011;33747;49.524;8.390;2023-04-24T07:08:00;3.25;;;1.85;;
7338;SDS011;33747;49.524;8.390;2023-04-24T07:10:26;1.50;;;1.40;;
7338;SDS011;33747;49.524;8.390;2023-04-24T07:12:53;2.30;;;1.30;;
7338;SDS011;33747;49.524;8.390;2023-04-24T07:15:19;1.30;;;1.20;;
7338;SDS011;33747;49.524;8.390;2023-04-24T07:17:45;1.63;;;1.10;;
7338;SDS011;33747;49.524;8.390;2023-04-24T07:20:11;1.20;;;1.02;;
7338;SDS011;33747;49.524;8.390;2023-04-24T07:22:39;4.18;;;1.20;;
7338;SDS011;33747;49.524;8.390;2023-04-24T07:25:05;1.40;;;1.30;;
7338;SDS011;33747;49.524;8.390;2023-04-24T07:27:31;1.67;;;1.55;;
7338;SDS011;33747;49.524;8.390;2023-04-24T07:29:56;2.08;;;1.55;;
7338;SDS011;33747;49.524;8.390;2023-04-24T07:32:21;2.03;;;1.27;;
7338;SDS011;33747;49.524;8.390;2023-04-24T07:34:47;3.38;;;1.63;;
7338;SDS011;33747;49.524;8.390;2023-04-24T07:37:12;1.83;;;1.30;;
7338;SDS011;33747;49.524;8.390;2023-04-24T07:39:38;5.20;;;1.42;;
7338;SDS011;33747;49.524;8.390;2023-04-24T07:42:03;4.75;;;1.45;;
7338;SDS011;33747;49.524;8.390;2023-04-24T07:44:29;2.95;;;1.20;;
7338;SDS011;33747;49.524;8.390;2023-04-24T07:46:54;2.78;;;1.38;;
7338;SDS011;33747;49.524;8.390;2023-04-24T07:49:20;1.63;;;1.20;;
7338;SDS011;33747;49.524;8.390;2023-04-24T07:51:46;3.13;;;1.20;;
7338;SDS011;33747;49.524;8.390;2023-04-24T07:54:11;3.30;;;1.50;;
7338;SDS011;33747;49.524;8.390;2023-04-24T07:56:37;3.20;;;1.60;;
7338;SDS011;33747;49.524;8.390;2023-04-24T07:59:06;3.85;;;1.80;;
7338;SDS011;33747;49.524;8.390;2023-04-24T08:01:31;1.75;;;1.65;;
7338;SDS011;33747;49.524;8.390;2023-04-24T08:03:57;3.08;;;1.63;;
7338;SDS011;33747;49.524;8.390;2023-04-24T08:06:22;2.70;;;1.17;;
7338;SDS011;33747;49.524;8.390;2023-04-24T08:08:48;1.85;;;1.58;;
7338;SDS011;33747;49.524;8.390;2023-04-24T08:11:13;1.88;;;1.15;;
7338;SDS011;33747;49.524;8.390;2023-04-24T08:13:38;1.65;;;1.20;;
7338;SDS011;33747;49.524;8.390;2023-04-24T08:16:04;1.08;;;1.08;;
7338;SDS011;33747;49.524;8.390;2023-04-24T08:18:29;3.83;;;1.60;;
7338;SDS011;33747;49.524;8.390;2023-04-24T08:20:55;1.70;;;1.50;;
7338;SDS011;33747;49.524;8.390;2023-04-24T08:23:21;6.65;;;1.50;;
7338;SDS011;33747;49.524;8.390;2023-04-24T08:25:47;4.88;;;1.52;;
7338;SDS011;33747;49.524;8.390;2023-04-24T08:28:12;2.78;;;1.75;;
7338;SDS011;33747;49.524;8.390;2023-04-24T08:30:37;1.90;;;1.75;;
7338;SDS011;33747;49.524;8.390;2023-04-24T08:33:03;6.30;;;1.73;;
7338;SDS011;33747;49.524;8.390;2023-04-24T08:35:28;1.52;;;1.42;;
7338;SDS011;33747;49.524;8.390;2023-04-24T08:37:54;3.10;;;1.98;;
7338;SDS011;33747;49.524;8.390;2023-04-24T08:40:21;1.75;;;1.65;;
7338;SDS011;33747;49.524;8.390;2023-04-24T08:42:48;2.28;;;1.80;;
7338;SDS011;33747;49.524;8.390;2023-04-24T08:45:14;1.95;;;1.83;;
7338;SDS011;33747;49.524;8.390;2023-04-24T08:47:40;4.45;;;1.92;;
7338;SDS011;33747;49.524;8.390;2023-04-24T08:50:06;6.35;;;1.60;;
7338;SDS011;33747;49.524;8.390;2023-04-24T08:52:33;3.17;;;1.80;;
7338;SDS011;33747;49.524;8.390;2023-04-24T08:54:59;2.50;;;1.45;;
7338;SDS011;33747;49.524;8.390;2023-04-24T08:57:26;3.67;;;1.73;;
7338;SDS011;33747;49.524;8.390;2023-04-24T08:59:52;1.67;;;1.58;;
7338;SDS011;33747;49.524;8.390;2023-04-24T09:02:18;1.52;;;1.40;;
7338;SDS011;33747;49.524;8.390;2023-04-24T09:04:44;4.13;;;1.30;;
7338;SDS011;33747;49.524;8.390;2023-04-24T09:07:10;2.10;;;1.50;;
7338;SDS011;33747;49.524;8.390;2023-04-24T09:09:37;1.40;;;1.30;;
7338;SDS011;33747;49.524;8.390;2023-04-24T09:12:03;1.50;;;1.30;;
7338;SDS011;33747;49.524;8.390;2023-04-24T09:14:29;3.47;;;1.50;;
7338;SDS011;33747;49.524;8.390;2023-04-24T09:16:56;3.88;;;1.80;;
7338;SDS011;33747;49.524;8.390;2023-04-24T09:19:21;4.63;;;1.50;;
7338;SDS011;33747;49.524;8.390;2023-04-24T09:21:47;1.70;;;1.60;;
7338;SDS011;33747;49.524;8.390;2023-04-24T09:24:16;1.55;;;1.33;;
7338;SDS011;33747;49.524;8.390;2023-04-24T09:26:43;1.70;;;1.20;;
7338;SDS011;33747;49.524;8.390;2023-04-24T09:29:13;3.08;;;1.75;;
7338;SDS011;33747;49.524;8.390;2023-04-24T09:31:42;2.33;;;1.45;;
7338;SDS011;33747;49.524;8.390;2023-04-24T09:34:07;2.50;;;1.77;;
7338;SDS011;33747;49.524;8.390;2023-04-24T09:36:34;1.70;;;1.60;;
7338;SDS011;33747;49.524;8.390;2023-04-24T09:39:04;6.57;;;1.95;;
7338;SDS011;33747;49.524;8.390;2023-04-24T09:41:31;2.53;;;1.73;;
7338;SDS011;33747;49.524;8.390;2023-04-24T09:43:57;3.05;;;2.17;;
7338;SDS011;33747;49.524;8.390;2023-04-24T09:46:35;1.80;;;1.70;;
7338;SDS011;33747;49.524;8.390;2023-04-24T09:49:08;4.43;;;2.13;;
7338;SDS011;33747;49.524;8.390;2023-04-24T09:51:36;2.17;;;1.80;;
7338;SDS011;33747;49.524;8.390;2023-04-24T09:54:03;2.00;;;1.60;;
7338;SDS011;33747;49.524;8.390;2023-04-24T09:56:32;3.63;;;1.85;;
7338;SDS011;33747;49.524;8.390;2023-04-24T09:59:05;1.60;;;1.50;;
7338;SDS011;33747;49.524;8.390;2023-04-24T10:01:31;4.95;;;2.10;;
7338;SDS011;33747;49.524;8.390;2023-04-24T10:03:57;2.88;;;1.50;;
7338;SDS011;33747;49.524;8.390;2023-04-24T10:06:22;3.35;;;1.50;;
7338;SDS011;33747;49.524;8.390;2023-04-24T10:08:48;3.05;;;1.52;;
7338;SDS011;33747;49.524;8.390;2023-04-24T10:11:13;1.35;;;1.25;;
7338;SDS011;33747;49.524;8.390;2023-04-24T10:13:39;1.73;;;1.63;;
7338;SDS011;33747;49.524;8.390;2023-04-24T10:16:05;2.30;;;1.40;;
7338;SDS011;33747;49.524;8.390;2023-04-24T10:18:32;1.30;;;1.20;;
7338;SDS011;33747;49.524;8.390;2023-04-24T10:22:28;2.05;;;1.40;;
7338;SDS011;33747;49.524;8.390;2023-04-24T10:24:55;2.67;;;1.83;;
7338;SDS011;33747;49.524;8.390;2023-04-24T10:27:21;6.05;;;1.42;;
7338;SDS011;33747;49.524;8.390;2023-04-24T10:29:46;1.80;;;1.42;;
7338;SDS011;33747;49.524;8.390;2023-04-24T10:32:12;2.97;;;1.60;;
7338;SDS011;33747;49.524;8.390;2023-04-24T10:34:38;1.95;;;1.58;;
7338;SDS011;33747;49.524;8.390;2023-04-24T10:37:03;2.05;;;1.80;;
7338;SDS011;33747;49.524;8.390;2023-04-24T10:39:28;1.60;;;1.50;;
7338;SDS011;33747;49.524;8.390;2023-04-24T10:41:55;2.25;;;2.00;;
7338;SDS011;33747;49.524;8.390;2023-04-24T10:44:24;3.47;;;1.92;;
7338;SDS011;33747;49.524;8.390;2023-04-24T10:46:52;2.15;;;1.67;;
7338;SDS011;33747;49.524;8.390;2023-04-24T10:49:18;5.32;;;2.15;;
7338;SDS011;33747;49.524;8.390;2023-04-24T10:51:53;2.10;;;1.60;;
7338;SDS011;33747;49.524;8.390;2023-04-24T10:59:45;2.15;;;1.95;;
7338;SDS011;33747;49.524;8.390;2023-04-24T11:02:14;5.55;;;1.92;;
7338;SDS011;33747;49.524;8.390;2023-04-24T11:04:40;2.90;;;2.08;;
7338;SDS011;33747;49.524;8.390;2023-04-24T11:07:06;6.82;;;2.20;;
7338;SDS011;33747;49.524;8.390;2023-04-24T11:09:31;2.78;;;1.88;;
7338;SDS011;33747;49.524;8.390;2023-04-24T11:12:07;2.88;;;2.10;;
7338;SDS011;33747;49.524;8.390;2023-04-24T11:17:31;2.33;;;2.13;;
7338;SDS011;33747;49.524;8.390;2023-04-24T11:20:02;7.28;;;1.95;;
7338;SDS011;33747;49.524;8.390;2023-04-24T11:22:28;2.53;;;2.08;;
7338;SDS011;33747;49.524;8.390;2023-04-24T11:24:59;3.95;;;2.40;;
7338;SDS011;33747;49.524;8.390;2023-04-24T11:27:28;2.55;;;2.20;;
7338;SDS011;33747;49.524;8.390;2023-04-24T11:30:04;3.78;;;2.13;;
7338;SDS011;33747;49.524;8.390;2023-04-24T11:32:33;5.75;;;2.63;;
7338;SDS011;33747;49.524;8.390;2023-04-24T11:35:00;5.20;;;2.97;;
7338;SDS011;33747;49.524;8.390;2023-04-24T11:37:27;2.35;;;2.15;;
7338;SDS011;33747;49.524;8.390;2023-04-24T11:39:55;3.00;;;2.67;;
7338;SDS011;33747;49.524;8.390;2023-04-24T11:42:21;3.33;;;2.45;;
7338;SDS011;33747;49.524;8.390;2023-04-24T11:44:48;4.20;;;2.20;;
7338;SDS011;33747;49.524;8.390;2023-04-24T11:47:14;4.13;;;2.55;;
7338;SDS011;33747;49.524;8.390;2023-04-24T11:49:40;7.35;;;2.63;;
7338;SDS011;33747;49.524;8.390;2023-04-24T11:52:05;3.97;;;2.50;;
7338;SDS011;33747;49.524;8.390;2023-04-24T11:54:31;5.22;;;2.92;;
7338;SDS011;33747;49.524;8.390;2023-04-24T11:56:56;5.28;;;2.83;;
7338;SDS011;33747;49.524;8.390;2023-04-24T11:59:22;2.90;;;2.58;;
7338;SDS011;33747;49.524;8.390;2023-04-24T12:01:48;4.85;;;2.67;;
7338;SDS011;33747;49.524;8.390;2023-04-24T12:04:14;4.68;;;2.25;;
7338;SDS011;33747;49.524;8.390;2023-04-24T12:09:28;5.53;;;2.45;;
7338;SDS011;33747;49.524;8.390;2023-04-24T12:11:54;7.45;;;2.60;;
7338;SDS011;33747;49.524;8.390;2023-04-24T12:14:21;2.83;;;2.40;;
7338;SDS011;33747;49.524;8.390;2023-04-24T12:16:48;5.03;;;2.72;;
7338;SDS011;33747;49.524;8.390;2023-04-24T12:19:22;3.70;;;2.33;;
7338;SDS011;33747;49.524;8.390;2023-04-24T12:22:05;3.38;;;2.88;;
7338;SDS011;33747;49.524;8.390;2023-04-24T12:24:31;3.67;;;2.55;;
7338;SDS011;33747;49.524;8.390;2023-04-24T12:26:56;2.75;;;2.28;;
7338;SDS011;33747;49.524;8.390;2023-04-24T12:29:22;4.88;;;2.65;;
7338;SDS011;33747;49.524;8.390;2023-04-24T12:31:49;4.05;;;2.35;;
7338;SDS011;33747;49.524;8.390;2023-04-24T12:34:21;9.75;;;2.38;;
7338;SDS011;33747;49.524;8.390;2023-04-24T12:36:48;3.85;;;2.83;;
7338;SDS011;33747;49.524;8.390;2023-04-24T12:39:14;3.55;;;2.47;;
7338;SDS011;33747;49.524;8.390;2023-04-24T12:41:50;6.50;;;2.60;;
7338;SDS011;33747;49.524;8.390;2023-04-24T12:44:32;6.30;;;2.28;;
7338;SDS011;33747;49.524;8.390;2023-04-24T12:47:01;3.65;;;2.67;;
7338;SDS011;33747;49.524;8.390;2023-04-24T12:49:27;3.53;;;2.42;;
7338;SDS011;33747;49.524;8.390;2023-04-24T12:51:55;4.53;;;3.00;;
7338;SDS011;33747;49.524;8.390;2023-04-24T12:54:20;3.33;;;2.47;;
7338;SDS011;33747;49.524;8.390;2023-04-24T12:56:45;5.30;;;3.00;;
7338;SDS011;33747;49.524;8.390;2023-04-24T12:59:11;3.58;;;2.38;;
7338;SDS011;33747;49.524;8.390;2023-04-24T13:01:36;7.13;;;2.58;;
7338;SDS011;33747;49.524;8.390;2023-04-24T13:04:02;3.70;;;2.28;;
7338;SDS011;33747;49.524;8.390;2023-04-24T13:06:27;4.07;;;2.28;;
7338;SDS011;33747;49.524;8.390;2023-04-24T13:08:52;6.45;;;2.70;;
7338;SDS011;33747;49.524;8.390;2023-04-24T13:11:19;4.72;;;2.10;;
7338;SDS011;33747;49.524;8.390;2023-04-24T13:13:46;5.05;;;2.08;;
7338;SDS011;33747;49.524;8.390;2023-04-24T13:16:11;4.10;;;2.45;;
7338;SDS011;33747;49.524;8.390;2023-04-24T13:18:37;4.03;;;2.28;;
7338;SDS011;33747;49.524;8.390;2023-04-24T13:21:02;4.05;;;2.55;;
7338;SDS011;33747;49.524;8.390;2023-04-24T13:23:28;3.92;;;2.10;;
7338;SDS011;33747;49.524;8.390;2023-04-24T13:25:54;4.32;;;2.28;;
7338;SDS011;33747;49.524;8.390;2023-04-24T13:28:22;14.85;;;2.60;;
7338;SDS011;33747;49.524;8.390;2023-04-24T13:30:47;2.63;;;2.30;;
7338;SDS011;33747;49.524;8.390;2023-04-24T13:33:13;3.95;;;2.28;;
7338;SDS011;33747;49.524;8.390;2023-04-24T13:35:38;5.80;;;2.00;;
7338;SDS011;33747;49.524;8.390;2023-04-24T13:38:04;2.90;;;2.20;;
7338;SDS011;33747;49.524;8.390;2023-04-24T13:40:31;6.03;;;2.40;;
7338;SDS011;33747;49.524;8.390;2023-04-24T13:42:56;2.20;;;2.00;;
7338;SDS011;33747;49.524;8.390;2023-04-24T13:45:22;2.95;;;2.55;;
7338;SDS011;33747;49.524;8.390;2023-04-24T13:47:47;3.72;;;2.40;;
7338;SDS011;33747;49.524;8.390;2023-04-24T13:50:13;3.35;;;2.10;;
7338;SDS011;33747;49.524;8.390;2023-04-24T13:52:38;8.88;;;2.33;;
7338;SDS011;33747;49.524;8.390;2023-04-24T13:55:03;6.28;;;2.25;;
7338;SDS011;33747;49.524;8.390;2023-04-24T13:57:29;3.45;;;2.38;;
7338;SDS011;33747;49.524;8.390;2023-04-24T13:59:55;4.35;;;2.42;;
7338;SDS011;33747;49.524;8.390;2023-04-24T14:02:26;5.03;;;2.65;;
7338;SDS011;33747;49.524;8.390;2023-04-24T14:04:51;3.72;;;2.50;;
7338;SDS011;33747;49.524;8.390;2023-04-24T14:07:16;6.15;;;2.65;;
7338;SDS011;33747;49.524;8.390;2023-04-24T14:09:42;2.72;;;2.28;;
7338;SDS011;33747;49.524;8.390;2023-04-24T14:12:07;5.47;;;2.20;;
7338;SDS011;33747;49.524;8.390;2023-04-24T14:14:32;2.70;;;2.20;;
7338;SDS011;33747;49.524;8.390;2023-04-24T14:16:58;2.20;;;2.00;;
7338;SDS011;33747;49.524;8.390;2023-04-24T14:19:23;4.60;;;2.20;;
7338;SDS011;33747;49.524;8.390;2023-04-24T14:21:49;2.95;;;1.77;;
7338;SDS011;33747;49.524;8.390;2023-04-24T14:24:14;1.70;;;1.58;;
7338;SDS011;33747;49.524;8.390;2023-04-24T14:26:40;1.95;;;1.80;;
7338;SDS011;33747;49.524;8.390;2023-04-24T14:29:05;3.22;;;2.13;;
7338;SDS011;33747;49.524;8.390;2023-04-24T14:31:31;5.13;;;2.13;;
7338;SDS011;33747;49.524;8.390;2023-04-24T14:33:56;2.72;;;2.28;;
7338;SDS011;33747;49.524;8.390;2023-04-24T14:36:22;2.28;;;1.70;;
7338;SDS011;33747;49.524;8.390;2023-04-24T14:38:47;2.22;;;2.00;;
7338;SDS011;33747;49.524;8.390;2023-04-24T14:41:13;6.57;;;2.40;;
7338;SDS011;33747;49.524;8.390;2023-04-24T14:43:38;3.17;;;2.15;;
7338;SDS011;33747;49.524;8.390;2023-04-24T14:46:04;3.88;;;1.85;;
7338;SDS011;33747;49.524;8.390;2023-04-24T14:48:29;2.40;;;2.13;;
7338;SDS011;33747;49.524;8.390;2023-04-24T14:50:55;3.17;;;2.58;;
7338;SDS011;33747;49.524;8.390;2023-04-24T14:53:20;5.15;;;2.53;;
7338;SDS011;33747;49.524;8.390;2023-04-24T14:55:46;2.63;;;1.92;;
7338;SDS011;33747;49.524;8.390;2023-04-24T14:58:11;4.15;;;2.55;;
7338;SDS011;33747;49.524;8.390;2023-04-24T15:00:36;6.50;;;2.50;;
7338;SDS011;33747;49.524;8.390;2023-04-24T15:03:02;8.98;;;2.53;;
7338;SDS011;33747;49.524;8.390;2023-04-24T15:05:27;4.10;;;2.70;;